Time;durP1;ratioP1;P1;durP2;ratioP2;P2;SDS_P1;SDS_P2;PMS_P1;PMS_P2;Temp;Humidity;BMP_temperature;BMP_pressure;BME280_temperature;BME280_humidity;BME280_pressure;Samples;Min_cycle;Max_cycle;Signal;HPM_P1;HPM_P2
2023/03/12 00:01:34;;;;;;;;;;;;;;;10.55;54.76;100974.88;4979294;28;19918;-48
2023/03/12 00:04:02;;;;;;;;;;;;;;;10.41;55.50;100974.78;4983502;28;20293;-50
2023/03/12 00:06:28;;;;;;;;;;;;;;;10.40;55.59;100965.09;4987779;28;19955;-50
2023/03/12 00:08:53;;;;;;;;;;;;;;;10.29;55.80;100965.56;4984422;28;19918;-47
2023/03/12 00:11:19;;;;;;;;;;;;;;;10.17;56.68;100958.06;4992255;28;19914;-49
2023/03/12 00:13:52;;;;;;;;;;;;;;;10.16;56.84;100948.41;4987909;28;19922;-50
2023/03/12 00:16:18;;;;;;;;;;;;;;;10.15;56.96;100952.09;4989067;28;19925;-55
2023/03/12 00:18:46;;;;;;;;;;;;;;;10.04;57.88;100949.91;4988742;28;19918;-50
2023/03/12 00:21:12;;;;;;;;;;;;;;;9.80;58.43;100949.22;4993760;28;19944;-49
2023/03/12 00:23:37;;;;;;;;;;;;;;;9.92;58.52;100946.88;4987649;28;19918;-52
2023/03/12 00:26:04;;;;;;;;;;;;;;;9.99;58.84;100941.63;4992358;28;19913;-50
2023/03/12 00:28:30;;;;;;;;;;;;;;;9.76;58.35;100934.59;4987834;28;19945;-50
2023/03/12 00:30:57;;;;;;;;;;;;;;;9.80;58.72;100933.19;4982832;28;19921;-49
2023/03/12 00:33:23;;;;;;;;;;;;;;;9.96;58.06;100944.69;4994681;28;19920;-49
2023/03/12 00:35:48;;;;;;;;;;;;;;;9.88;58.70;100929.59;4986171;28;19918;-53
2023/03/12 00:38:14;;;;;;;;;;;;;;;9.76;58.69;100931.91;4987723;28;19921;-54
2023/03/12 00:40:39;;;;;;;;;;;;;;;10.13;58.78;100927.38;4998064;28;19918;-48
2023/03/12 00:43:04;;;;;;;;;;;;;;;10.02;59.13;100927.88;4991060;28;20274;-51
2023/03/12 00:45:30;;;;;;;;;;;;;;;10.10;58.77;100938.44;4988298;28;19917;-52
2023/03/12 00:47:55;;;;;;;;;;;;;;;9.79;59.18;100942.22;4983185;28;19982;-53
2023/03/12 00:50:21;;;;;;;;;;;;;;;10.15;58.57;100936.06;4990908;28;19918;-52
2023/03/12 00:52:47;;;;;;;;;;;;;;;10.01;58.79;100929.72;4982189;28;19914;-53
2023/03/12 00:55:12;;;;;;;;;;;;;;;10.17;58.61;100934.00;4986125;28;19921;-50
2023/03/12 00:57:38;;;;;;;;;;;;;;;9.95;59.48;100937.69;5000272;28;19918;-52
2023/03/12 01:00:08;;;;;;;;;;;;;;;10.05;59.11;100935.53;4999802;28;20172;-50
2023/03/12 01:02:36;;;;;;;;;;;;;;;10.16;58.88;100940.38;4973969;28;19910;-49
2023/03/12 01:05:01;;;;;;;;;;;;;;;10.00;59.00;100928.06;4989634;28;19914;-48
2023/03/12 01:07:26;;;;;;;;;;;;;;;9.96;59.33;100912.63;4988842;28;19981;-48
2023/03/12 01:09:52;;;;;;;;;;;;;;;10.12;59.35;100915.03;4967876;28;19918;-51
2023/03/12 01:12:17;;;;;;;;;;;;;;;10.25;59.48;100916.19;4984510;28;19914;-51
2023/03/12 01:14:43;;;;;;;;;;;;;;;10.08;60.11;100912.94;4985851;28;19943;-50
2023/03/12 01:17:08;;;;;;;;;;;;;;;10.44;59.34;100914.72;4985659;28;19914;-50
2023/03/12 01:19:34;;;;;;;;;;;;;;;10.26;59.13;100910.63;4987422;28;19918;-49
2023/03/12 01:22:00;;;;;;;;;;;;;;;9.95;59.98;100900.28;4985122;28;19941;-52
2023/03/12 01:24:25;;;;;;;;;;;;;;;10.11;59.79;100892.00;4987528;28;19914;-51
2023/03/12 01:26:50;;;;;;;;;;;;;;;9.63;61.06;100892.53;4989807;28;19921;-48
2023/03/12 01:29:16;;;;;;;;;;;;;;;10.00;60.69;100900.53;4979169;28;19925;-48
2023/03/12 01:31:41;;;;;;;;;;;;;;;10.15;60.72;100895.13;4977024;28;19936;-51
2023/03/12 01:34:09;;;;;;;;;;;;;;;9.78;61.08;100892.50;5005178;28;20001;-48
2023/03/12 01:36:35;;;;;;;;;;;;;;;10.12;60.11;100887.50;4980774;28;19942;-53
2023/03/12 01:39:00;;;;;;;;;;;;;;;9.99;60.53;100888.19;4984575;28;19922;-51
2023/03/12 01:41:27;;;;;;;;;;;;;;;10.26;60.33;100886.56;4989313;28;19914;-55
2023/03/12 01:43:53;;;;;;;;;;;;;;;10.14;60.29;100890.81;4984263;28;19914;-51
2023/03/12 01:46:24;;;;;;;;;;;;;;;10.17;60.45;100899.28;4986562;28;19929;-52
2023/03/12 01:49:07;;;;;;;;;;;;;;;10.16;60.55;100894.94;4986468;28;19972;-49
2023/03/12 01:51:42;;;;;;;;;;;;;;;10.63;59.41;100888.34;4974215;28;20342;-51
2023/03/12 01:54:12;;;;;;;;;;;;;;;10.54;59.99;100895.69;4998539;28;19925;-49
2023/03/12 01:56:39;;;;;;;;;;;;;;;10.66;59.50;100888.81;4984344;28;19948;-49
2023/03/12 01:59:24;;;;;;;;;;;;;;;10.22;60.43;100884.50;4996912;28;19919;-49
2023/03/12 02:01:50;;;;;;;;;;;;;;;10.64;59.97;100882.81;4966509;28;19918;-51
2023/03/12 02:04:17;;;;;;;;;;;;;;;10.46;60.34;100878.78;5000034;28;19953;-48
2023/03/12 02:06:54;;;;;;;;;;;;;;;10.75;60.00;100876.91;4979111;28;19950;-49
2023/03/12 02:09:20;;;;;;;;;;;;;;;10.55;60.00;100870.59;4994365;28;19982;-51
2023/03/12 02:11:47;;;;;;;;;;;;;;;10.60;60.21;100868.16;4984315;28;19957;-51
2023/03/12 02:14:13;;;;;;;;;;;;;;;10.47;60.84;100860.88;4980329;28;19914;-49
2023/03/12 02:16:38;;;;;;;;;;;;;;;10.53;61.30;100867.28;4987726;28;19922;-50
2023/03/12 02:19:11;;;;;;;;;;;;;;;10.65;60.50;100859.56;4987739;28;19914;-52
2023/03/12 02:21:38;;;;;;;;;;;;;;;10.44;60.75;100842.53;4982566;28;19981;-51
2023/03/12 02:24:22;;;;;;;;;;;;;;;10.22;61.39;100852.44;4985735;28;19932;-50
2023/03/12 02:26:48;;;;;;;;;;;;;;;9.94;62.91;100842.53;4981876;28;19978;-50
2023/03/12 02:29:15;;;;;;;;;;;;;;;10.00;62.84;100836.41;4990212;28;19941;-47
2023/03/12 02:31:52;;;;;;;;;;;;;;;10.55;61.82;100831.31;5001234;28;19918;-52
2023/03/12 02:34:18;;;;;;;;;;;;;;;10.44;61.50;100822.00;4988712;28;19914;-50
2023/03/12 02:36:43;;;;;;;;;;;;;;;10.63;61.32;100829.50;5001257;28;19924;-52
2023/03/12 02:39:10;;;;;;;;;;;;;;;11.01;60.28;100827.25;4988758;28;19918;-48
2023/03/12 02:41:41;;;;;;;;;;;;;;;10.33;61.15;100830.50;5006326;28;19956;-49
2023/03/12 02:44:07;;;;;;;;;;;;;;;10.02;62.40;100826.34;4990488;28;19914;-51
2023/03/12 02:46:37;;;;;;;;;;;;;;;9.61;64.06;100828.63;4998236;28;19922;-50
2023/03/12 02:49:02;;;;;;;;;;;;;;;9.83;64.72;100815.28;4984425;28;19918;-48
2023/03/12 02:51:28;;;;;;;;;;;;;;;10.21;63.36;100808.00;5007349;28;19918;-50
2023/03/12 02:53:53;;;;;;;;;;;;;;;10.65;62.31;100808.75;4988792;28;19940;-53
2023/03/12 02:56:21;;;;;;;;;;;;;;;10.57;61.50;100809.72;5001103;28;19914;-51
2023/03/12 02:58:46;;;;;;;;;;;;;;;10.29;61.54;100799.84;5000723;28;19918;-49
2023/03/12 03:01:12;;;;;;;;;;;;;;;10.14;62.94;100807.97;4991592;28;19974;-49
2023/03/12 03:03:37;;;;;;;;;;;;;;;10.15;62.89;100802.44;4992312;28;19971;-49
2023/03/12 03:06:03;;;;;;;;;;;;;;;9.70;64.38;100802.63;4984584;28;19914;-48
2023/03/12 03:08:28;;;;;;;;;;;;;;;10.28;63.37;100792.84;4990598;28;19922;-48
2023/03/12 03:10:54;;;;;;;;;;;;;;;9.99;63.15;100787.47;4998272;28;19914;-50
2023/03/12 03:13:20;;;;;;;;;;;;;;;10.41;61.89;100790.31;4988069;28;19921;-53
2023/03/12 03:15:45;;;;;;;;;;;;;;;10.61;61.01;100784.25;5003865;28;19921;-50
2023/03/12 03:18:10;;;;;;;;;;;;;;;10.06;61.69;100789.41;4999494;28;19975;-51
2023/03/12 03:20:36;;;;;;;;;;;;;;;9.97;62.21;100784.19;4991450;28;19929;-48
2023/03/12 03:23:01;;;;;;;;;;;;;;;9.95;62.66;100790.75;4985230;28;19913;-50
2023/03/12 03:25:27;;;;;;;;;;;;;;;10.00;62.58;100786.47;5003812;28;19972;-53
2023/03/12 03:27:52;;;;;;;;;;;;;;;10.04;62.18;100787.75;5005338;28;19915;-49
2023/03/12 03:30:18;;;;;;;;;;;;;;;9.90;61.72;100778.78;5008685;28;19918;-52
2023/03/12 03:32:47;;;;;;;;;;;;;;;10.09;61.40;100781.81;5003503;28;19914;-47
2023/03/12 03:35:13;;;;;;;;;;;;;;;10.12;60.38;100781.41;4983407;28;19914;-50
2023/03/12 03:37:39;;;;;;;;;;;;;;;9.92;61.37;100786.59;4957549;28;19919;-54
2023/03/12 03:40:05;;;;;;;;;;;;;;;9.64;61.93;100778.53;4946621;29;19915;-49
2023/03/12 03:42:30;;;;;;;;;;;;;;;9.61;62.60;100774.41;4952626;29;19952;-53
2023/03/12 03:44:56;;;;;;;;;;;;;;;9.70;62.69;100780.47;4948728;28;19915;-49
2023/03/12 03:47:22;;;;;;;;;;;;;;;9.78;63.03;100779.47;4953068;29;19922;-49
2023/03/12 03:49:48;;;;;;;;;;;;;;;9.94;62.90;100778.41;4951439;29;19923;-49
2023/03/12 03:52:14;;;;;;;;;;;;;;;9.51;64.37;100772.06;4948804;29;19938;-49
2023/03/12 03:54:40;;;;;;;;;;;;;;;9.71;65.19;100758.09;4952614;29;19942;-52
2023/03/12 03:57:06;;;;;;;;;;;;;;;9.69;66.82;100754.78;4953274;29;19929;-53
2023/03/12 03:59:31;;;;;;;;;;;;;;;9.80;67.54;100753.41;4949788;29;19915;-51
2023/03/12 04:01:57;;;;;;;;;;;;;;;9.40;70.61;100749.38;4948656;29;19954;-52
2023/03/12 04:04:23;;;;;;;;;;;;;;;9.59;71.82;100753.25;4951026;29;19914;-47
2023/03/12 04:06:49;;;;;;;;;;;;;;;9.24;74.56;100744.25;4965832;28;19919;-50
2023/03/12 04:09:15;;;;;;;;;;;;;;;9.21;76.96;100737.44;4951595;29;19906;-53
2023/03/12 04:11:41;;;;;;;;;;;;;;;9.42;76.91;100742.00;4951394;29;19915;-51
2023/03/12 04:14:08;;;;;;;;;;;;;;;9.07;79.46;100739.13;4950140;29;19921;-52
2023/03/12 04:16:37;;;;;;;;;;;;;;;9.00;80.67;100731.09;4951285;29;19910;-47
2023/03/12 04:19:03;;;;;;;;;;;;;;;8.89;82.12;100715.56;4950559;29;19937;-52
2023/03/12 04:21:29;;;;;;;;;;;;;;;8.98;82.67;100713.59;4949121;28;19914;-53
2023/03/12 04:23:54;;;;;;;;;;;;;;;9.03;82.02;100703.19;4952589;29;19926;-52
2023/03/12 04:26:23;;;;;;;;;;;;;;;9.05;83.27;100706.50;4946665;29;19926;-50
2023/03/12 04:28:49;;;;;;;;;;;;;;;9.03;84.91;100708.53;4951186;29;19919;-48
2023/03/12 04:31:15;;;;;;;;;;;;;;;8.86;85.91;100703.41;4954207;28;19922;-48
2023/03/12 04:33:47;;;;;;;;;;;;;;;9.12;84.05;100703.91;4950741;29;19937;-50
2023/03/12 04:36:15;;;;;;;;;;;;;;;9.24;83.74;100705.06;4955234;29;19918;-51
2023/03/12 04:38:43;;;;;;;;;;;;;;;9.53;83.24;100702.44;4968905;28;19949;-49
2023/03/12 04:41:11;;;;;;;;;;;;;;;9.50;82.72;100698.34;4971902;28;19914;-52
2023/03/12 04:43:40;;;;;;;;;;;;;;;9.22;84.53;100693.72;4968733;28;19982;-52
2023/03/12 04:46:06;;;;;;;;;;;;;;;9.27;84.46;100688.69;4969232;28;19921;-51
2023/03/12 04:48:33;;;;;;;;;;;;;;;9.28;85.75;100690.31;4967974;28;19922;-51
2023/03/12 04:50:59;;;;;;;;;;;;;;;9.23;86.33;100679.41;4955195;28;19967;-48
2023/03/12 04:53:25;;;;;;;;;;;;;;;9.39;85.83;100674.81;4967420;28;19915;-50
2023/03/12 04:55:51;;;;;;;;;;;;;;;9.68;85.63;100662.31;4966870;28;19937;-51
2023/03/12 04:58:17;;;;;;;;;;;;;;;9.32;87.08;100664.91;4971749;28;19914;-49
2023/03/12 05:00:43;;;;;;;;;;;;;;;9.58;86.07;100652.81;4966431;28;19938;-53
2023/03/12 05:03:09;;;;;;;;;;;;;;;9.52;85.98;100663.41;4971498;28;19923;-50
2023/03/12 05:05:35;;;;;;;;;;;;;;;9.55;86.48;100660.34;4966784;28;19914;-49
2023/03/12 05:08:02;;;;;;;;;;;;;;;9.70;84.82;100653.09;4971506;28;20351;-53
2023/03/12 05:10:29;;;;;;;;;;;;;;;9.72;84.55;100666.25;4966722;28;19945;-53
2023/03/12 05:12:55;;;;;;;;;;;;;;;9.55;87.08;100647.84;4968306;28;20459;-51
2023/03/12 05:15:21;;;;;;;;;;;;;;;9.51;87.90;100640.41;4970855;28;19918;-51
2023/03/12 05:17:46;;;;;;;;;;;;;;;9.39;89.14;100632.09;4969919;28;19921;-51
2023/03/12 05:20:12;;;;;;;;;;;;;;;9.21;90.81;100633.38;4971619;28;19914;-46
2023/03/12 05:22:38;;;;;;;;;;;;;;;9.33;91.08;100639.03;4968341;28;19915;-51
2023/03/12 05:25:05;;;;;;;;;;;;;;;9.56;90.65;100622.81;4970295;28;19914;-50
2023/03/12 05:27:31;;;;;;;;;;;;;;;9.42;91.80;100629.88;4968681;28;19932;-50
2023/03/12 05:29:57;;;;;;;;;;;;;;;9.47;91.42;100613.28;4968450;28;19919;-48
2023/03/12 05:32:24;;;;;;;;;;;;;;;9.53;92.15;100620.53;4973011;28;19918;-49
2023/03/12 05:34:49;;;;;;;;;;;;;;;9.65;92.58;100619.97;4968327;28;19917;-49
2023/03/12 05:37:15;;;;;;;;;;;;;;;9.36;93.71;100611.13;4966647;28;19993;-53
2023/03/12 05:39:45;;;;;;;;;;;;;;;9.43;93.38;100599.50;4971161;28;19936;-51
2023/03/12 05:42:12;;;;;;;;;;;;;;;9.42;93.77;100597.00;4970281;28;19949;-48
2023/03/12 05:44:37;;;;;;;;;;;;;;;9.47;94.51;100598.09;4954091;28;19925;-50
2023/03/12 05:47:04;;;;;;;;;;;;;;;9.60;94.44;100601.88;4968027;28;19914;-50
2023/03/12 05:49:30;;;;;;;;;;;;;;;9.60;94.43;100601.88;4969043;28;19925;-49
2023/03/12 05:51:56;;;;;;;;;;;;;;;9.25;95.68;100613.31;4969277;28;19926;-53
2023/03/12 05:54:23;;;;;;;;;;;;;;;9.45;95.20;100620.66;4968892;28;19936;-56
2023/03/12 05:56:50;;;;;;;;;;;;;;;9.21;96.55;100613.91;4973075;28;19918;-51
2023/03/12 05:59:17;;;;;;;;;;;;;;;9.33;95.06;100607.00;4968555;28;19915;-55
2023/03/12 06:01:43;;;;;;;;;;;;;;;9.54;94.54;100621.34;4968536;28;19915;-52
2023/03/12 06:04:10;;;;;;;;;;;;;;;9.18;97.06;100617.75;4970228;28;19914;-54
2023/03/12 06:06:36;;;;;;;;;;;;;;;9.43;97.26;100628.03;4967444;28;19944;-49
2023/03/12 06:09:03;;;;;;;;;;;;;;;9.50;98.03;100614.75;4968946;28;19926;-49
2023/03/12 06:11:29;;;;;;;;;;;;;;;9.68;98.19;100624.91;4970349;28;19990;-48
2023/03/12 06:13:55;;;;;;;;;;;;;;;9.69;98.92;100621.25;4965728;28;19921;-51
2023/03/12 06:16:22;;;;;;;;;;;;;;;9.30;100.00;100618.06;4952708;28;19997;-54
2023/03/12 06:18:51;;;;;;;;;;;;;;;9.29;100.00;100632.44;4966830;28;19926;-52
2023/03/12 06:21:18;;;;;;;;;;;;;;;8.89;100.00;100619.53;4969680;28;19937;-53
2023/03/12 06:23:44;;;;;;;;;;;;;;;9.15;100.00;100632.31;4967141;28;19942;-49
2023/03/12 06:26:14;;;;;;;;;;;;;;;9.47;100.00;100624.78;4965628;28;19922;-54
2023/03/12 06:28:39;;;;;;;;;;;;;;;9.31;100.00;100615.22;4967955;28;19933;-52
2023/03/12 06:31:05;;;;;;;;;;;;;;;9.13;100.00;100607.69;4969229;28;20399;-54
2023/03/12 06:33:30;;;;;;;;;;;;;;;9.34;100.00;100619.31;4970337;28;19921;-54
2023/03/12 06:35:57;;;;;;;;;;;;;;;9.09;100.00;100606.38;4972554;28;19914;-52
2023/03/12 06:38:23;;;;;;;;;;;;;;;9.27;100.00;100603.28;5015493;28;19914;-51
2023/03/12 06:40:57;;;;;;;;;;;;;;;9.64;100.00;100607.66;4987847;28;20013;-52
2023/03/12 06:43:24;;;;;;;;;;;;;;;9.41;100.00;100588.19;4991591;28;19914;-49
2023/03/12 06:45:50;;;;;;;;;;;;;;;9.53;100.00;100596.50;4984869;28;20371;-51
2023/03/12 06:48:15;;;;;;;;;;;;;;;8.94;100.00;100600.31;4985565;28;19945;-55
2023/03/12 06:50:40;;;;;;;;;;;;;;;8.97;100.00;100587.41;4992052;28;19940;-52
2023/03/12 06:53:05;;;;;;;;;;;;;;;9.15;100.00;100572.78;4990027;28;19920;-51
2023/03/12 06:55:31;;;;;;;;;;;;;;;8.74;100.00;100571.59;4992899;28;19914;-54
2023/03/12 06:57:57;;;;;;;;;;;;;;;9.35;100.00;100577.47;4990247;28;19918;-51
2023/03/12 07:00:22;;;;;;;;;;;;;;;9.04;100.00;100574.97;4992297;28;19953;-53
2023/03/12 07:02:48;;;;;;;;;;;;;;;9.16;100.00;100571.78;4992866;28;19914;-49
2023/03/12 07:05:13;;;;;;;;;;;;;;;8.99;100.00;100573.88;4991546;28;19925;-51
2023/03/12 07:07:39;;;;;;;;;;;;;;;9.20;100.00;100564.22;4989643;28;19922;-49
2023/03/12 07:10:05;;;;;;;;;;;;;;;9.07;100.00;100564.94;4991454;28;19961;-52
2023/03/12 07:12:31;;;;;;;;;;;;;;;8.90;100.00;100562.53;4989926;28;19910;-51
2023/03/12 07:14:57;;;;;;;;;;;;;;;9.26;100.00;100556.28;4992427;28;19957;-55
2023/03/12 07:17:23;;;;;;;;;;;;;;;8.89;100.00;100552.88;4992691;28;19921;-49
2023/03/12 07:19:48;;;;;;;;;;;;;;;8.95;100.00;100556.63;4989507;28;19985;-49
2023/03/12 07:22:14;;;;;;;;;;;;;;;9.22;100.00;100557.66;4989549;28;19917;-51
2023/03/12 07:24:40;;;;;;;;;;;;;;;9.44;100.00;100562.94;4989338;28;19914;-52
2023/03/12 07:27:05;;;;;;;;;;;;;;;9.43;100.00;100558.63;4990483;28;19944;-50
2023/03/12 07:29:30;;;;;;;;;;;;;;;9.34;100.00;100560.63;4991087;28;19926;-50
2023/03/12 07:31:55;;;;;;;;;;;;;;;9.31;100.00;100575.19;4990036;28;19914;-54
2023/03/12 07:34:21;;;;;;;;;;;;;;;9.22;100.00;100572.84;4993200;28;19953;-50
2023/03/12 07:36:46;;;;;;;;;;;;;;;9.60;100.00;100586.69;4992181;28;19930;-54
2023/03/12 07:39:12;;;;;;;;;;;;;;;9.56;100.00;100580.09;4996889;28;19914;-54
2023/03/12 07:41:37;;;;;;;;;;;;;;;9.87;100.00;100570.81;4991254;28;19914;-51
2023/03/12 07:44:03;;;;;;;;;;;;;;;9.64;100.00;100575.59;4991599;28;19917;-52
2023/03/12 07:46:29;;;;;;;;;;;;;;;9.52;100.00;100575.31;4991143;28;19918;-51
2023/03/12 07:48:54;;;;;;;;;;;;;;;10.43;100.00;100574.38;4986077;28;19918;-51
2023/03/12 07:51:19;;;;;;;;;;;;;;;9.69;100.00;100582.00;4991308;28;19918;-53
2023/03/12 07:53:45;;;;;;;;;;;;;;;9.65;100.00;100571.91;4992058;28;19937;-51
2023/03/12 07:56:10;;;;;;;;;;;;;;;9.65;100.00;100577.25;4988997;28;20320;-48
2023/03/12 07:58:35;;;;;;;;;;;;;;;9.53;100.00;100583.16;4992383;28;19914;-53
2023/03/12 08:01:01;;;;;;;;;;;;;;;9.78;100.00;100581.84;4991188;28;19933;-54
2023/03/12 08:03:27;;;;;;;;;;;;;;;9.70;100.00;100580.19;4991457;28;19918;-48
2023/03/12 08:06:00;;;;;;;;;;;;;;;9.64;100.00;100573.78;4998359;28;19914;-48
2023/03/12 08:08:25;;;;;;;;;;;;;;;9.72;100.00;100575.47;4990455;28;19929;-49
2023/03/12 08:10:51;;;;;;;;;;;;;;;9.47;100.00;100562.59;4989675;28;19914;-46
2023/03/12 08:13:17;;;;;;;;;;;;;;;9.72;100.00;100559.44;4992627;28;19914;-49
2023/03/12 08:15:43;;;;;;;;;;;;;;;9.95;100.00;100569.81;4989867;28;19933;-52
2023/03/12 08:18:08;;;;;;;;;;;;;;;9.76;100.00;100574.84;4991111;28;19917;-53
2023/03/12 08:20:34;;;;;;;;;;;;;;;10.22;100.00;100563.78;4989897;28;19918;-51
2023/03/12 08:22:59;;;;;;;;;;;;;;;9.88;100.00;100566.31;4990387;28;19942;-54
2023/03/12 08:25:25;;;;;;;;;;;;;;;9.76;100.00;100574.06;4990783;28;19914;-50
2023/03/12 08:27:50;;;;;;;;;;;;;;;10.08;100.00;100582.44;4987375;28;19925;-53
2023/03/12 08:30:16;;;;;;;;;;;;;;;9.69;100.00;100570.53;4986666;28;19961;-53
2023/03/12 08:32:41;;;;;;;;;;;;;;;9.99;100.00;100573.75;4989129;28;19929;-50
2023/03/12 08:35:07;;;;;;;;;;;;;;;10.21;100.00;100572.84;4989886;28;19914;-49
2023/03/12 08:37:32;;;;;;;;;;;;;;;10.49;100.00;100593.31;4993441;28;19917;-53
2023/03/12 08:39:58;;;;;;;;;;;;;;;10.04;100.00;100579.34;4991570;28;19914;-54
2023/03/12 08:42:24;;;;;;;;;;;;;;;10.09;100.00;100593.94;4988628;28;19921;-49
2023/03/12 08:44:49;;;;;;;;;;;;;;;10.22;100.00;100567.28;4990064;28;19974;-51
2023/03/12 08:47:15;;;;;;;;;;;;;;;10.32;100.00;100578.44;4991032;28;19914;-49
2023/03/12 08:49:40;;;;;;;;;;;;;;;10.71;100.00;100592.16;4987937;28;19925;-52
2023/03/12 08:52:06;;;;;;;;;;;;;;;10.82;100.00;100582.69;4987882;28;19933;-52
2023/03/12 08:54:31;;;;;;;;;;;;;;;10.64;100.00;100577.09;4989249;28;19940;-51
2023/03/12 08:56:57;;;;;;;;;;;;;;;10.72;100.00;100577.75;4989489;28;19979;-51
2023/03/12 08:59:22;;;;;;;;;;;;;;;10.90;100.00;100573.66;4990413;28;19914;-53
2023/03/12 09:01:48;;;;;;;;;;;;;;;10.87;100.00;100571.41;4994258;28;19918;-53
2023/03/12 09:04:14;;;;;;;;;;;;;;;11.11;100.00;100577.19;4987410;28;19926;-50
2023/03/12 09:06:39;;;;;;;;;;;;;;;11.32;100.00;100598.41;4986346;28;19914;-53
2023/03/12 09:09:05;;;;;;;;;;;;;;;11.20;100.00;100583.97;4989982;28;19929;-48
2023/03/12 09:11:32;;;;;;;;;;;;;;;11.00;100.00;100582.09;4991501;28;19967;-51
2023/03/12 09:13:57;;;;;;;;;;;;;;;11.08;100.00;100585.63;4988812;28;19917;-48
2023/03/12 09:16:23;;;;;;;;;;;;;;;11.31;100.00;100596.75;4989372;28;19986;-52
2023/03/12 09:18:49;;;;;;;;;;;;;;;11.57;100.00;100589.72;4989364;28;19918;-50
2023/03/12 09:21:14;;;;;;;;;;;;;;;11.25;100.00;100586.84;4988995;28;19914;-53
2023/03/12 09:23:40;;;;;;;;;;;;;;;11.39;100.00;100573.47;4984504;28;19920;-51
2023/03/12 09:26:08;;;;;;;;;;;;;;;11.54;100.00;100583.94;4987643;28;19937;-52
2023/03/12 09:28:34;;;;;;;;;;;;;;;11.60;100.00;100575.06;4986439;28;19914;-51
2023/03/12 09:31:00;;;;;;;;;;;;;;;11.80;100.00;100564.34;4982039;28;19929;-53
2023/03/12 09:33:25;;;;;;;;;;;;;;;11.96;100.00;100571.09;4986209;28;19941;-53
2023/03/12 09:35:56;;;;;;;;;;;;;;;12.04;100.00;100578.09;4980581;28;19914;-49
2023/03/12 09:38:22;;;;;;;;;;;;;;;12.19;100.00;100585.88;4973221;28;19913;-53
2023/03/12 09:40:47;;;;;;;;;;;;;;;11.82;100.00;100586.38;4986123;28;20009;-50
2023/03/12 09:43:16;;;;;;;;;;;;;;;12.30;100.00;100589.75;4985995;28;19914;-53
2023/03/12 09:45:43;;;;;;;;;;;;;;;12.34;100.00;100593.66;4991605;28;19921;-53
2023/03/12 09:48:14;;;;;;;;;;;;;;;12.32;100.00;100593.84;4981574;28;19964;-52
2023/03/12 09:50:42;;;;;;;;;;;;;;;11.87;100.00;100599.97;4983618;28;19945;-52
2023/03/12 09:53:19;;;;;;;;;;;;;;;12.52;100.00;100592.13;4983965;28;19946;-49
2023/03/12 09:55:46;;;;;;;;;;;;;;;12.22;100.00;100596.16;4983689;28;19941;-53
2023/03/12 09:58:32;;;;;;;;;;;;;;;12.54;100.00;100604.28;4981824;28;19914;-49
2023/03/12 10:01:00;;;;;;;;;;;;;;;12.56;100.00;100602.19;4983627;28;20397;-52
2023/03/12 10:03:51;;;;;;;;;;;;;;;12.21;100.00;100601.72;4980811;28;19977;-53
2023/03/12 10:06:19;;;;;;;;;;;;;;;12.44;100.00;100620.00;4989970;28;19925;-51
2023/03/12 10:09:00;;;;;;;;;;;;;;;12.48;100.00;100608.66;4985711;28;19929;-55
2023/03/12 10:11:44;;;;;;;;;;;;;;;12.92;100.00;100608.00;4982104;28;19987;-51
2023/03/12 10:14:28;;;;;;;;;;;;;;;12.80;100.00;100607.88;4981893;28;19918;-52
2023/03/12 10:16:56;;;;;;;;;;;;;;;12.85;100.00;100596.47;4980254;28;19914;-57
2023/03/12 10:19:25;;;;;;;;;;;;;;;13.02;100.00;100594.91;4986041;28;19956;-52
2023/03/12 10:21:56;;;;;;;;;;;;;;;13.29;100.00;100597.38;4982687;28;19957;-54
2023/03/12 10:24:40;;;;;;;;;;;;;;;13.33;100.00;100595.09;4989396;28;19984;-53
2023/03/12 10:27:11;;;;;;;;;;;;;;;14.03;100.00;100593.16;4981204;28;19910;-54
2023/03/12 10:29:39;;;;;;;;;;;;;;;14.10;100.00;100587.72;4981034;28;19922;-53
2023/03/12 10:32:15;;;;;;;;;;;;;;;14.57;100.00;100581.75;4983065;28;19919;-54
2023/03/12 10:34:43;;;;;;;;;;;;;;;14.32;100.00;100588.91;4986400;28;19925;-49
2023/03/12 10:37:19;;;;;;;;;;;;;;;14.51;100.00;100596.09;4973097;28;19926;-52
2023/03/12 10:39:45;;;;;;;;;;;;;;;14.94;100.00;100587.03;4962438;28;19919;-55
2023/03/12 10:42:17;;;;;;;;;;;;;;;14.96;100.00;100601.09;4964037;28;19915;-51
2023/03/12 10:44:44;;;;;;;;;;;;;;;14.87;100.00;100591.72;4964932;28;19915;-50
2023/03/12 10:47:22;;;;;;;;;;;;;;;15.58;100.00;100586.41;4965676;28;19921;-52
2023/03/12 10:49:49;;;;;;;;;;;;;;;15.58;100.00;100590.97;4964612;28;19925;-53
2023/03/12 10:52:19;;;;;;;;;;;;;;;15.70;100.00;100588.28;4963630;28;19915;-52
2023/03/12 10:54:46;;;;;;;;;;;;;;;15.02;100.00;100594.78;4963887;28;19914;-57
2023/03/12 10:57:14;;;;;;;;;;;;;;;14.88;100.00;100590.66;4965921;28;19921;-53
2023/03/12 10:59:44;;;;;;;;;;;;;;;15.00;100.00;100606.84;4968409;28;19919;-49
2023/03/12 11:02:29;;;;;;;;;;;;;;;14.91;100.00;100590.19;4963473;28;19941;-52
2023/03/12 11:04:55;;;;;;;;;;;;;;;14.84;100.00;100590.28;4966040;28;19936;-51
2023/03/12 11:07:27;;;;;;;;;;;;;;;15.67;100.00;100594.94;4970834;28;19918;-54
2023/03/12 11:10:11;;;;;;;;;;;;;;;15.17;100.00;100598.91;4961418;28;19950;-53
2023/03/12 11:12:38;;;;;;;;;;;;;;;15.10;100.00;100600.88;4964027;28;19915;-53
2023/03/12 11:15:21;;;;;;;;;;;;;;;15.83;100.00;100593.41;4963590;28;20112;-51
2023/03/12 11:17:47;;;;;;;;;;;;;;;16.19;100.00;100590.66;4961593;28;19919;-53
2023/03/12 11:20:27;;;;;;;;;;;;;;;16.32;100.00;100603.88;4959607;28;19949;-51
2023/03/12 11:22:52;;;;;;;;;;;;;;;16.09;100.00;100615.53;4960367;28;19915;-53
2023/03/12 11:25:21;;;;;;;;;;;;;;;15.62;100.00;100619.91;4956697;28;19921;-53
2023/03/12 11:27:50;;;;;;;;;;;;;;;15.44;100.00;100617.31;4962982;28;19915;-54
2023/03/12 11:30:20;;;;;;;;;;;;;;;15.69;100.00;100641.34;4968585;28;19926;-51
2023/03/12 11:32:47;;;;;;;;;;;;;;;15.71;100.00;100625.75;4962447;28;19915;-51
2023/03/12 11:35:15;;;;;;;;;;;;;;;15.77;100.00;100622.13;4968867;28;19915;-50
2023/03/12 11:37:52;;;;;;;;;;;;;;;16.08;100.00;100640.88;4987006;28;19918;-52
2023/03/12 11:40:17;;;;;;;;;;;;;;;16.46;100.00;100630.59;4985462;28;19921;-56
2023/03/12 11:42:46;;;;;;;;;;;;;;;15.80;100.00;100645.09;4982686;28;19922;-53
2023/03/12 11:45:15;;;;;;;;;;;;;;;15.63;100.00;100626.13;4987609;28;19914;-53
2023/03/12 11:48:00;;;;;;;;;;;;;;;15.76;100.00;100620.47;4982442;28;19914;-53
2023/03/12 11:50:25;;;;;;;;;;;;;;;16.03;100.00;100619.19;4984772;28;19918;-53
2023/03/12 11:53:08;;;;;;;;;;;;;;;15.71;100.00;100622.28;4988156;28;19957;-55
2023/03/12 11:55:42;;;;;;;;;;;;;;;15.92;100.00;100620.84;4979188;28;20029;-50
2023/03/12 11:58:13;;;;;;;;;;;;;;;16.33;100.00;100623.59;4987070;28;19914;-53
2023/03/12 12:00:41;;;;;;;;;;;;;;;16.37;100.00;100615.84;4985431;28;19914;-58
2023/03/12 12:03:19;;;;;;;;;;;;;;;15.93;100.00;100609.00;4985100;28;19914;-50
2023/03/12 12:05:48;;;;;;;;;;;;;;;15.67;100.00;100610.28;4981347;28;19942;-53
2023/03/12 12:08:20;;;;;;;;;;;;;;;15.86;100.00;100595.63;4983970;28;19914;-49
2023/03/12 12:10:52;;;;;;;;;;;;;;;16.48;100.00;100596.06;4989793;28;19919;-52
2023/03/12 12:13:29;;;;;;;;;;;;;;;16.14;100.00;100582.47;4986189;28;19919;-48
2023/03/12 12:16:13;;;;;;;;;;;;;;;16.60;100.00;100587.91;4987291;28;19922;-52
2023/03/12 12:18:58;;;;;;;;;;;;;;;16.27;100.00;100590.31;4986198;28;19930;-54
2023/03/12 12:21:41;;;;;;;;;;;;;;;16.32;100.00;100590.41;4988372;28;19914;-51
2023/03/12 12:24:23;;;;;;;;;;;;;;;17.09;100.00;100592.06;4986297;28;19957;-51
2023/03/12 12:26:53;;;;;;;;;;;;;;;16.97;100.00;100590.19;4983206;28;19913;-53
2023/03/12 12:29:24;;;;;;;;;;;;;;;16.54;100.00;100603.22;4985739;28;19964;-49
2023/03/12 12:31:54;;;;;;;;;;;;;;;16.48;100.00;100593.38;4983570;28;19953;-52
2023/03/12 12:34:20;;;;;;;;;;;;;;;16.77;100.00;100591.47;4983889;28;19918;-53
2023/03/12 12:36:49;;;;;;;;;;;;;;;16.55;100.00;100587.84;4988569;28;19977;-53
2023/03/12 12:39:19;;;;;;;;;;;;;;;16.58;100.00;100590.88;4984470;28;19985;-53